createdAt,value
2018-08-23T00:01:00.103Z,19.40
2018-08-23T00:02:00.688Z,19.34
2018-08-23T00:03:01.298Z,19.29
2018-08-23T00:04:01.788Z,19.29
2018-08-23T00:05:02.346Z,19.27
2018-08-23T00:06:02.899Z,19.21
2018-08-23T00:07:03.450Z,19.29
2018-08-23T00:08:04.022Z,19.27
2018-08-23T00:09:04.557Z,19.30
2018-08-23T00:10:05.112Z,19.29
2018-08-23T00:11:05.663Z,19.29
2018-08-23T00:12:06.209Z,19.25
2018-08-23T00:13:06.764Z,19.24
2018-08-23T00:14:07.319Z,19.22
2018-08-23T00:15:07.878Z,19.16
2018-08-23T00:16:08.431Z,19.14
2018-08-23T00:17:08.984Z,19.11
2018-08-23T00:18:09.537Z,19.04
2018-08-23T00:19:10.092Z,19.11
2018-08-23T00:20:10.648Z,19.09
2018-08-23T00:21:11.204Z,19.07
2018-08-23T00:22:11.759Z,19.14
2018-08-23T00:23:12.310Z,19.14
2018-08-23T00:24:12.870Z,19.07
2018-08-23T00:25:13.424Z,19.04
2018-08-23T00:26:13.967Z,19.06
2018-08-23T00:27:14.591Z,19.06
2018-08-23T00:28:15.075Z,19.06
2018-08-23T00:29:15.634Z,18.99
2018-08-23T00:30:16.189Z,19.00
2018-08-23T00:31:16.748Z,19.11
2018-08-23T00:32:17.298Z,19.00
2018-08-23T00:33:17.852Z,19.06
2018-08-23T00:34:18.408Z,19.00
2018-08-23T00:35:18.962Z,18.93
2018-08-23T00:36:19.514Z,18.96
2018-08-23T00:37:20.071Z,18.93
2018-08-23T00:38:20.617Z,18.92
2018-08-23T00:39:21.172Z,18.84
2018-08-23T00:40:21.727Z,18.81
2018-08-23T00:41:22.284Z,18.75
2018-08-23T00:42:22.837Z,18.68
2018-08-23T00:43:23.395Z,18.73
2018-08-23T00:44:23.941Z,18.65
2018-08-23T00:45:24.496Z,18.59
2018-08-23T00:46:25.048Z,18.56
2018-08-23T00:47:25.615Z,18.50
2018-08-23T00:48:26.157Z,18.55
2018-08-23T00:49:26.714Z,18.55
2018-08-23T00:50:27.271Z,18.59
2018-08-23T00:51:27.814Z,18.60
2018-08-23T00:52:28.361Z,18.55
2018-08-23T00:53:28.913Z,18.51
2018-08-23T00:54:29.469Z,18.53
2018-08-23T00:55:30.018Z,18.53
2018-08-23T00:56:30.572Z,18.48
2018-08-23T00:57:31.126Z,18.43
2018-08-23T00:58:31.683Z,18.38
2018-08-23T00:59:32.238Z,18.41
2018-08-23T01:00:32.794Z,18.41
2018-08-23T01:01:33.346Z,18.48
2018-08-23T01:02:33.894Z,18.38
2018-08-23T01:03:34.450Z,18.41
2018-08-23T01:04:35.004Z,18.34
2018-08-23T01:05:35.559Z,18.32
2018-08-23T01:06:36.113Z,18.18
2018-08-23T01:07:36.668Z,18.16
2018-08-23T01:08:37.216Z,18.12
2018-08-23T01:09:37.762Z,18.18
2018-08-23T01:10:38.313Z,18.18
2018-08-23T01:11:38.868Z,18.10
2018-08-23T01:12:39.627Z,18.19
2018-08-23T01:13:40.183Z,18.16
2018-08-23T01:14:40.733Z,18.12
2018-08-23T01:15:41.286Z,18.11
2018-08-23T01:16:41.845Z,18.08
2018-08-23T01:17:42.395Z,18.10
2018-08-23T01:18:42.952Z,18.18
2018-08-23T01:19:43.495Z,18.14
2018-08-23T01:20:44.048Z,18.16
2018-08-23T01:21:44.602Z,18.10
2018-08-23T01:22:45.156Z,18.05
2018-08-23T01:23:45.709Z,17.92
2018-08-23T01:24:46.255Z,17.87
2018-08-23T01:25:46.811Z,17.86
2018-08-23T01:26:47.365Z,17.83
2018-08-23T01:27:47.920Z,17.72
2018-08-23T01:28:48.468Z,17.82
2018-08-23T01:29:49.025Z,17.87
2018-08-23T01:30:49.577Z,17.83
2018-08-23T01:31:50.130Z,17.79
2018-08-23T01:32:50.678Z,17.85
2018-08-23T01:33:51.232Z,17.85
2018-08-23T01:34:51.784Z,17.86
2018-08-23T01:35:52.341Z,17.85
2018-08-23T01:36:52.899Z,17.86
2018-08-23T01:37:53.453Z,17.83
2018-08-23T01:38:54.003Z,17.80
2018-08-23T01:39:54.556Z,17.89
2018-08-23T01:40:55.109Z,17.87
2018-08-23T01:41:55.657Z,17.85
2018-08-23T01:42:56.213Z,17.86
2018-08-23T01:43:56.761Z,17.87
2018-08-23T01:44:57.316Z,17.83
2018-08-23T01:45:57.868Z,17.87
2018-08-23T01:46:58.420Z,17.92
2018-08-23T01:47:58.982Z,17.95
2018-08-23T01:48:59.530Z,17.89
2018-08-23T01:50:00.087Z,17.95
2018-08-23T01:51:00.643Z,17.93
2018-08-23T01:52:01.193Z,17.93
2018-08-23T01:53:01.752Z,18.03
2018-08-23T01:54:02.305Z,17.86
2018-08-23T01:55:02.860Z,17.87
2018-08-23T01:56:03.414Z,17.86
2018-08-23T01:57:03.968Z,17.83
2018-08-23T01:58:04.520Z,17.85
2018-08-23T01:59:05.070Z,17.80
2018-08-23T02:00:05.622Z,17.83
2018-08-23T02:01:06.171Z,17.79
2018-08-23T02:02:06.722Z,17.77
2018-08-23T02:03:07.278Z,17.80
2018-08-23T02:04:07.829Z,17.79
2018-08-23T02:05:08.385Z,17.80
2018-08-23T02:06:08.930Z,17.75
2018-08-23T02:07:09.483Z,17.77
2018-08-23T02:08:10.030Z,17.80
2018-08-23T02:09:10.591Z,17.79
2018-08-23T02:10:11.134Z,17.80
2018-08-23T02:11:11.693Z,17.82
2018-08-23T02:12:12.244Z,17.80
2018-08-23T02:13:12.792Z,17.80
2018-08-23T02:14:13.347Z,17.80
2018-08-23T02:15:13.903Z,17.80
2018-08-23T02:16:14.536Z,17.79
2018-08-23T02:17:15.096Z,17.79
2018-08-23T02:18:15.644Z,17.77
2018-08-23T02:19:16.198Z,17.80
2018-08-23T02:20:16.752Z,17.74
2018-08-23T02:21:17.306Z,17.80
2018-08-23T02:22:17.856Z,17.77
2018-08-23T02:23:18.408Z,17.75
2018-08-23T02:24:18.964Z,17.71
2018-08-23T02:25:19.519Z,17.60
2018-08-23T02:26:20.081Z,17.59
2018-08-23T02:27:20.627Z,17.56
2018-08-23T02:28:21.179Z,17.63
2018-08-23T02:29:21.729Z,17.64
2018-08-23T02:30:22.284Z,17.64
2018-08-23T02:31:22.838Z,17.54
2018-08-23T02:32:23.393Z,17.52
2018-08-23T02:33:23.947Z,17.42
2018-08-23T02:34:24.500Z,17.39
2018-08-23T02:35:25.054Z,17.37
2018-08-23T02:36:25.604Z,17.44
2018-08-23T02:37:26.160Z,17.36
2018-08-23T02:38:26.713Z,17.36
2018-08-23T02:39:27.267Z,17.19
2018-08-23T02:40:27.822Z,17.30
2018-08-23T02:41:28.383Z,17.24
2018-08-23T02:42:28.935Z,17.24
2018-08-23T02:43:29.494Z,17.26
2018-08-23T02:44:30.052Z,17.26
2018-08-23T02:45:30.600Z,17.29
2018-08-23T02:46:31.157Z,17.21
2018-08-23T02:47:31.714Z,17.21
2018-08-23T02:48:32.262Z,17.21
2018-08-23T02:49:32.814Z,17.15
2018-08-23T02:50:33.367Z,17.21
2018-08-23T02:51:33.920Z,17.18
2018-08-23T02:52:34.474Z,17.19
2018-08-23T02:53:35.029Z,17.18
2018-08-23T02:54:35.581Z,17.21
2018-08-23T02:55:36.133Z,17.14
2018-08-23T02:56:36.696Z,17.23
2018-08-23T02:57:37.239Z,17.15
2018-08-23T02:58:37.792Z,17.15
2018-08-23T02:59:38.339Z,17.15
2018-08-23T03:00:38.933Z,17.11
2018-08-23T03:01:39.446Z,17.08
2018-08-23T03:02:39.999Z,17.09
2018-08-23T03:03:40.554Z,17.14
2018-08-23T03:04:41.107Z,17.08
2018-08-23T03:05:41.661Z,17.06
2018-08-23T03:06:42.212Z,17.08
2018-08-23T03:07:42.763Z,17.11
2018-08-23T03:08:43.321Z,17.09
2018-08-23T03:09:43.881Z,17.12
2018-08-23T03:10:44.422Z,17.15
2018-08-23T03:11:44.975Z,17.12
2018-08-23T03:12:45.528Z,17.11
2018-08-23T03:13:46.073Z,17.11
2018-08-23T03:14:46.630Z,17.04
2018-08-23T03:15:47.189Z,17.12
2018-08-23T03:16:47.736Z,17.01
2018-08-23T03:17:48.280Z,17.05
2018-08-23T03:18:48.832Z,17.00
2018-08-23T03:19:49.392Z,17.05
2018-08-23T03:20:49.939Z,17.05
2018-08-23T03:21:50.493Z,16.94
2018-08-23T03:22:51.048Z,17.05
2018-08-23T03:23:51.601Z,17.01
2018-08-23T03:24:52.157Z,16.96
2018-08-23T03:25:52.707Z,17.01
2018-08-23T03:26:53.252Z,16.98
2018-08-23T03:27:53.807Z,16.96
2018-08-23T03:28:54.354Z,16.98
2018-08-23T03:29:54.908Z,16.98
2018-08-23T03:30:55.463Z,16.94
2018-08-23T03:31:56.017Z,16.97
2018-08-23T03:32:56.572Z,16.97
2018-08-23T03:33:57.128Z,16.96
2018-08-23T03:34:57.683Z,16.87
2018-08-23T03:35:58.233Z,16.98
2018-08-23T03:36:58.787Z,17.04
2018-08-23T03:37:59.340Z,16.96
2018-08-23T03:38:59.891Z,16.89
2018-08-23T03:40:00.440Z,16.90
2018-08-23T03:41:00.994Z,16.86
2018-08-23T03:42:01.547Z,16.93
2018-08-23T03:43:02.099Z,16.89
2018-08-23T03:44:02.650Z,16.81
2018-08-23T03:45:03.211Z,16.82
2018-08-23T03:46:03.750Z,16.83
2018-08-23T03:47:04.296Z,16.82
2018-08-23T03:48:04.852Z,16.82
2018-08-23T03:49:05.401Z,16.79
2018-08-23T03:50:05.956Z,16.78
2018-08-23T03:51:06.514Z,16.78
2018-08-23T03:52:07.064Z,16.79
2018-08-23T03:53:07.625Z,16.63
2018-08-23T03:54:08.173Z,16.58
2018-08-23T03:55:08.723Z,16.58
2018-08-23T03:56:09.277Z,16.50
2018-08-23T03:57:09.827Z,16.43
2018-08-23T03:58:10.379Z,16.31
2018-08-23T03:59:10.942Z,16.16
2018-08-23T04:00:11.492Z,16.10
2018-08-23T04:01:12.035Z,16.02
2018-08-23T04:02:12.594Z,15.99
2018-08-23T04:03:13.141Z,16.01
2018-08-23T04:04:13.692Z,15.89
2018-08-23T04:05:14.247Z,15.95
2018-08-23T04:06:14.826Z,15.98
2018-08-23T04:07:15.352Z,15.97
2018-08-23T04:08:15.907Z,15.97
2018-08-23T04:09:16.463Z,16.01
2018-08-23T04:10:17.012Z,16.02
2018-08-23T04:11:17.568Z,16.04
2018-08-23T04:12:18.117Z,15.89
2018-08-23T04:13:18.671Z,15.82
2018-08-23T04:14:19.230Z,15.83
2018-08-23T04:15:19.824Z,15.80
2018-08-23T04:16:20.335Z,15.84
2018-08-23T04:17:20.905Z,15.77
2018-08-23T04:18:21.441Z,15.83
2018-08-23T04:19:22.005Z,15.80
2018-08-23T04:20:22.565Z,15.84
2018-08-23T04:21:23.113Z,15.98
2018-08-23T04:22:23.658Z,16.04
2018-08-23T04:23:24.232Z,16.05
2018-08-23T04:24:24.796Z,16.02
2018-08-23T04:25:25.368Z,16.04
2018-08-23T04:26:25.916Z,15.99
2018-08-23T04:27:26.471Z,16.04
2018-08-23T04:28:27.029Z,15.98
2018-08-23T04:29:27.584Z,16.01
2018-08-23T04:30:28.140Z,15.99
2018-08-23T04:31:28.694Z,16.01
2018-08-23T04:32:29.246Z,16.04
2018-08-23T04:33:29.804Z,15.99
2018-08-23T04:34:30.361Z,16.04
2018-08-23T04:35:30.916Z,15.89
2018-08-23T04:36:31.475Z,15.83
2018-08-23T04:37:32.041Z,15.84
2018-08-23T04:38:32.587Z,15.80
2018-08-23T04:39:33.137Z,15.86
2018-08-23T04:40:33.694Z,15.82
2018-08-23T04:41:34.251Z,15.82
2018-08-23T04:42:34.810Z,15.65
2018-08-23T04:43:35.367Z,15.68
2018-08-23T04:44:35.921Z,15.68
2018-08-23T04:45:36.485Z,15.75
2018-08-23T04:46:37.044Z,15.65
2018-08-23T04:47:37.599Z,15.65
2018-08-23T04:48:38.154Z,15.68
2018-08-23T04:49:38.712Z,15.69
2018-08-23T04:50:39.269Z,15.69
2018-08-23T04:51:39.870Z,15.76
2018-08-23T04:52:40.387Z,15.79
2018-08-23T04:53:40.949Z,15.75
2018-08-23T04:54:41.520Z,15.79
2018-08-23T04:55:42.091Z,15.83
2018-08-23T04:56:42.635Z,15.86
2018-08-23T04:57:43.188Z,15.91
2018-08-23T04:58:43.737Z,15.99
2018-08-23T04:59:44.301Z,15.97
2018-08-23T05:00:44.859Z,15.98
2018-08-23T05:01:45.416Z,16.07
2018-08-23T05:02:45.975Z,16.04
2018-08-23T05:03:46.531Z,16.16
2018-08-23T05:04:47.118Z,16.17
2018-08-23T05:05:47.660Z,16.23
2018-08-23T05:06:48.222Z,16.24
2018-08-23T05:07:48.776Z,16.35
2018-08-23T05:08:49.353Z,16.36
2018-08-23T05:09:49.916Z,16.35
2018-08-23T05:10:50.507Z,16.45
2018-08-23T05:11:51.034Z,16.46
2018-08-23T05:12:51.586Z,16.53
2018-08-23T05:13:52.150Z,16.66
2018-08-23T05:14:52.711Z,16.68
2018-08-23T05:15:53.308Z,16.69
2018-08-23T05:16:53.907Z,16.76
2018-08-23T05:17:54.478Z,16.81
2018-08-23T05:18:55.056Z,16.82
2018-08-23T05:19:55.585Z,16.82
2018-08-23T05:20:56.170Z,16.94
2018-08-23T05:21:56.763Z,17.01
2018-08-23T05:22:57.376Z,16.98
2018-08-23T05:23:57.925Z,16.93
2018-08-23T05:24:58.735Z,17.11
2018-08-23T05:25:59.268Z,17.24
2018-08-23T05:26:59.832Z,17.34
2018-08-23T05:28:00.452Z,17.48
2018-08-23T05:29:01.019Z,17.48
2018-08-23T05:30:01.605Z,17.71
2018-08-23T05:31:02.189Z,17.80
2018-08-23T05:32:02.762Z,18.00
2018-08-23T05:33:03.365Z,18.35
2018-08-23T05:34:03.944Z,18.59
2018-08-23T05:35:04.518Z,18.78
2018-08-23T05:36:05.151Z,19.11
2018-08-23T05:37:05.721Z,19.16
2018-08-23T05:38:06.321Z,19.41
2018-08-23T05:39:06.898Z,19.56
2018-08-23T05:40:07.485Z,19.54
2018-08-23T05:41:08.048Z,19.47
2018-08-23T05:42:08.609Z,19.51
2018-08-23T05:43:09.186Z,19.55
2018-08-23T05:44:09.741Z,19.74
2018-08-23T05:45:10.310Z,20.02
2018-08-23T05:46:10.879Z,20.09
2018-08-23T05:47:11.440Z,20.29
2018-08-23T05:48:12.005Z,20.11
2018-08-23T05:49:12.649Z,20.03
2018-08-23T05:50:13.657Z,20.13
2018-08-23T05:51:14.694Z,20.40
2018-08-23T05:52:15.314Z,20.80
2018-08-23T05:53:16.007Z,21.14
2018-08-23T05:54:16.502Z,21.39
2018-08-23T05:55:18.021Z,21.69
2018-08-23T05:56:18.960Z,22.02
2018-08-23T05:57:19.549Z,22.10
2018-08-23T05:58:20.123Z,22.17
2018-08-23T05:59:20.696Z,22.18
2018-08-23T06:00:21.271Z,22.29
2018-08-23T06:01:21.892Z,22.62
2018-08-23T06:02:22.420Z,22.73
2018-08-23T06:03:23.309Z,23.03
2018-08-23T06:04:23.991Z,23.27
2018-08-23T06:05:24.567Z,23.27
2018-08-23T06:06:25.169Z,23.21
2018-08-23T06:07:26.106Z,23.10
2018-08-23T06:08:26.740Z,23.27
2018-08-23T06:09:27.363Z,23.47
2018-08-23T06:10:27.941Z,23.71
2018-08-23T06:11:28.517Z,23.98
2018-08-23T06:12:29.093Z,24.35
2018-08-23T06:13:29.670Z,24.66
2018-08-23T06:14:30.269Z,24.96
2018-08-23T06:15:30.846Z,24.88
2018-08-23T06:16:31.421Z,24.81
2018-08-23T06:17:31.998Z,24.79
2018-08-23T06:18:32.574Z,24.80
2018-08-23T06:19:33.385Z,24.84
2018-08-23T06:20:33.927Z,25.11
2018-08-23T06:21:34.508Z,25.28
2018-08-23T06:22:35.104Z,25.43
2018-08-23T06:23:35.686Z,25.56
2018-08-23T06:24:36.289Z,25.71
2018-08-23T06:25:36.965Z,25.75
2018-08-23T06:26:37.484Z,25.87
2018-08-23T06:27:38.064Z,26.10
2018-08-23T06:28:38.643Z,26.29
2018-08-23T06:29:39.221Z,26.43
2018-08-23T06:30:39.823Z,26.61
2018-08-23T06:31:40.405Z,26.93
2018-08-23T06:32:40.990Z,26.92
2018-08-23T06:33:41.620Z,26.88
2018-08-23T06:34:42.362Z,27.11
2018-08-23T06:35:43.058Z,27.21
2018-08-23T06:36:43.593Z,27.33
2018-08-23T06:37:44.201Z,27.48
2018-08-23T06:38:44.795Z,27.35
2018-08-23T06:39:45.365Z,27.54
2018-08-23T06:40:45.949Z,27.67
2018-08-23T06:41:46.530Z,27.61
2018-08-23T06:42:47.112Z,27.83
2018-08-23T06:43:47.693Z,27.98
2018-08-23T06:44:48.278Z,28.08
2018-08-23T06:45:48.861Z,28.30
2018-08-23T06:46:49.437Z,28.30
2018-08-23T06:47:50.042Z,28.45
2018-08-23T06:48:50.673Z,28.30
2018-08-23T06:49:51.203Z,28.25
2018-08-23T06:50:51.784Z,28.45
2018-08-23T06:51:52.372Z,28.63
2018-08-23T06:52:52.957Z,28.87
2018-08-23T06:53:53.538Z,29.25
2018-08-23T06:54:54.123Z,29.50
2018-08-23T06:55:54.705Z,29.85
2018-08-23T06:56:55.472Z,30.03
2018-08-23T06:57:56.113Z,30.21
2018-08-23T06:58:56.704Z,30.27
2018-08-23T06:59:57.253Z,30.46
2018-08-23T07:00:57.836Z,30.60
2018-08-23T07:01:58.421Z,30.60
2018-08-23T07:02:59.006Z,30.51
2018-08-23T07:03:59.589Z,30.65
2018-08-23T07:05:00.170Z,30.68
2018-08-23T07:06:00.757Z,30.65
2018-08-23T07:07:01.595Z,30.46
2018-08-23T07:08:02.149Z,30.49
2018-08-23T07:09:02.738Z,30.53
2018-08-23T07:10:03.314Z,30.56
2018-08-23T07:11:03.923Z,30.72
2018-08-23T07:12:04.525Z,30.64
2018-08-23T07:13:05.290Z,30.56
2018-08-23T07:14:05.867Z,30.69
2018-08-23T07:15:06.452Z,30.87
2018-08-23T07:16:07.035Z,31.31
2018-08-23T07:17:07.779Z,31.31
2018-08-23T07:18:08.362Z,31.15
2018-08-23T07:19:08.943Z,30.94
2018-08-23T07:20:09.533Z,30.99
2018-08-23T07:21:10.149Z,30.87
2018-08-23T07:22:10.689Z,31.09
2018-08-23T07:23:11.273Z,31.49
2018-08-23T07:24:11.898Z,31.54
2018-08-23T07:25:12.438Z,31.47
2018-08-23T07:26:13.266Z,31.46
2018-08-23T07:27:13.770Z,31.62
2018-08-23T07:28:14.353Z,31.64
2018-08-23T07:29:14.940Z,31.73
2018-08-23T07:30:15.618Z,31.96
2018-08-23T07:31:16.109Z,32.11
2018-08-23T07:32:16.693Z,32.10
2018-08-23T07:33:17.497Z,32.15
2018-08-23T07:34:18.321Z,32.15
2018-08-23T07:35:18.906Z,32.27
2018-08-23T07:36:19.507Z,31.95
2018-08-23T07:37:20.090Z,31.95
2018-08-23T07:38:20.676Z,31.99
2018-08-23T07:39:21.416Z,31.80
2018-08-23T07:40:21.843Z,31.95
2018-08-23T07:41:22.447Z,32.00
2018-08-23T07:42:23.060Z,31.95
2018-08-23T07:43:23.610Z,31.77
2018-08-23T07:44:24.192Z,31.50
2018-08-23T07:45:24.783Z,31.55
2018-08-23T07:46:25.389Z,31.36
2018-08-23T07:47:25.968Z,31.52
2018-08-23T07:48:26.605Z,31.62
2018-08-23T07:49:27.150Z,32.00
2018-08-23T07:50:27.714Z,32.03
2018-08-23T07:51:28.323Z,32.18
2018-08-23T07:52:29.178Z,32.32
2018-08-23T07:53:29.799Z,32.56
2018-08-23T07:54:30.246Z,32.49
2018-08-23T07:55:30.834Z,32.47
2018-08-23T07:56:31.411Z,32.17
2018-08-23T07:57:31.994Z,32.17
2018-08-23T07:58:32.607Z,32.18
2018-08-23T07:59:33.189Z,32.41
2018-08-23T08:00:33.796Z,32.37
2018-08-23T08:01:34.379Z,32.34
2018-08-23T08:02:34.968Z,32.34
2018-08-23T08:03:35.720Z,32.43
2018-08-23T08:04:36.315Z,32.36
2018-08-23T08:05:36.900Z,32.14
2018-08-23T08:06:37.480Z,32.03
2018-08-23T08:07:38.065Z,32.11
2018-08-23T08:08:38.667Z,32.14
2018-08-23T08:09:39.253Z,32.33
2018-08-23T08:10:40.086Z,32.39
2018-08-23T08:11:40.768Z,32.17
2018-08-23T08:12:41.378Z,32.07
2018-08-23T08:13:41.957Z,32.10
2018-08-23T08:14:42.585Z,32.39
2018-08-23T08:15:43.126Z,32.22
2018-08-23T08:16:43.731Z,32.06
2018-08-23T08:17:44.317Z,32.15
2018-08-23T08:18:45.112Z,32.27
2018-08-23T08:19:45.732Z,32.29
2018-08-23T08:20:46.527Z,32.07
2018-08-23T08:21:47.321Z,32.11
2018-08-23T08:22:47.831Z,32.14
2018-08-23T08:23:48.413Z,32.00
2018-08-23T08:24:48.996Z,31.47
2018-08-23T08:25:49.577Z,31.50
2018-08-23T08:26:50.164Z,31.57
2018-08-23T08:27:50.905Z,31.71
2018-08-23T08:28:51.522Z,31.82
2018-08-23T08:29:52.109Z,31.80
2018-08-23T08:30:52.674Z,31.93
2018-08-23T08:31:53.248Z,32.29
2018-08-23T08:32:53.824Z,32.62
2018-08-23T08:33:54.403Z,32.49
2018-08-23T08:34:54.977Z,32.52
2018-08-23T08:35:55.549Z,32.39
2018-08-23T08:36:56.126Z,32.48
2018-08-23T08:37:56.701Z,32.51
2018-08-23T08:38:57.270Z,32.67
2018-08-23T08:39:57.864Z,32.69
2018-08-23T08:40:58.427Z,32.22
2018-08-23T08:41:59.026Z,32.29
2018-08-23T08:42:59.594Z,32.17
2018-08-23T08:44:00.170Z,32.29
2018-08-23T08:45:00.740Z,32.11
2018-08-23T08:46:01.307Z,32.19
2018-08-23T08:47:01.873Z,32.47
2018-08-23T08:48:02.453Z,32.63
2018-08-23T08:49:03.027Z,32.44
2018-08-23T08:50:03.605Z,32.61
2018-08-23T08:51:04.183Z,32.44
2018-08-23T08:52:04.746Z,32.34
2018-08-23T08:53:05.321Z,32.51
2018-08-23T08:54:05.897Z,32.78
2018-08-23T08:55:06.478Z,32.86
2018-08-23T08:56:07.053Z,32.56
2018-08-23T08:57:07.710Z,32.48
2018-08-23T08:58:08.253Z,32.34
2018-08-23T08:59:08.818Z,32.24
2018-08-23T09:00:09.390Z,32.37
2018-08-23T09:01:09.965Z,32.34
2018-08-23T09:02:10.541Z,32.54
2018-08-23T09:03:11.148Z,32.49
2018-08-23T09:04:11.686Z,32.19
2018-08-23T09:05:12.273Z,32.30
2018-08-23T09:06:12.830Z,32.43
2018-08-23T09:07:13.407Z,32.39
2018-08-23T09:08:13.983Z,32.67
2018-08-23T09:09:14.557Z,32.89
2018-08-23T09:10:15.130Z,33.10
2018-08-23T09:11:15.708Z,33.28
2018-08-23T09:12:16.288Z,33.36
2018-08-23T09:13:16.860Z,33.49
2018-08-23T09:14:17.433Z,33.50
2018-08-23T09:15:18.015Z,32.99
2018-08-23T09:16:18.587Z,32.83
2018-08-23T09:17:19.160Z,32.86
2018-08-23T09:18:19.729Z,32.58
2018-08-23T09:19:20.308Z,32.14
2018-08-23T09:20:20.921Z,32.10
2018-08-23T09:21:21.464Z,32.00
2018-08-23T09:22:22.061Z,31.85
2018-08-23T09:23:22.633Z,32.00
2018-08-23T09:24:23.208Z,31.93
2018-08-23T09:25:23.917Z,32.17
2018-08-23T09:26:24.354Z,32.27
2018-08-23T09:27:24.927Z,32.15
2018-08-23T09:28:25.505Z,32.05
2018-08-23T09:29:26.078Z,31.99
2018-08-23T09:30:26.653Z,31.31
2018-08-23T09:31:27.225Z,31.31
2018-08-23T09:32:27.801Z,31.47
2018-08-23T09:33:28.365Z,31.32
2018-08-23T09:34:28.942Z,31.24
2018-08-23T09:35:29.507Z,31.08
2018-08-23T09:36:30.089Z,31.20
2018-08-23T09:37:30.655Z,31.34
2018-08-23T09:38:31.225Z,31.40
2018-08-23T09:39:31.800Z,31.39
2018-08-23T09:40:32.376Z,31.34
2018-08-23T09:41:32.954Z,31.55
2018-08-23T09:42:33.524Z,31.47
2018-08-23T09:43:34.101Z,31.21
2018-08-23T09:44:34.667Z,31.40
2018-08-23T09:45:35.234Z,31.34
2018-08-23T09:46:35.796Z,31.46
2018-08-23T09:47:36.369Z,31.87
2018-08-23T09:48:36.949Z,32.12
2018-08-23T09:49:37.522Z,32.30
2018-08-23T09:50:38.151Z,32.29
2018-08-23T09:51:38.674Z,31.96
2018-08-23T09:52:39.256Z,31.85
2018-08-23T09:53:39.821Z,31.71
2018-08-23T09:54:40.395Z,31.80
2018-08-23T09:55:40.968Z,32.03
2018-08-23T09:56:41.582Z,32.24
2018-08-23T09:57:42.114Z,32.12
2018-08-23T09:58:42.692Z,32.00
2018-08-23T09:59:43.254Z,32.07
2018-08-23T10:00:43.826Z,31.97
2018-08-23T10:01:44.403Z,32.00
2018-08-23T10:02:44.976Z,31.96
2018-08-23T10:03:45.556Z,31.90
2018-08-23T10:04:46.177Z,32.05
2018-08-23T10:05:46.690Z,32.12
2018-08-23T10:06:47.265Z,31.79
2018-08-23T10:07:47.841Z,31.85
2018-08-23T10:08:48.415Z,31.82
2018-08-23T10:09:48.998Z,32.11
2018-08-23T10:10:49.570Z,32.43
2018-08-23T10:11:50.153Z,32.37
2018-08-23T10:12:50.715Z,32.40
2018-08-23T10:13:51.294Z,32.67
2018-08-23T10:14:51.864Z,32.89
2018-08-23T10:15:52.439Z,32.59
2018-08-23T10:16:53.016Z,32.47
2018-08-23T10:17:53.595Z,32.21
2018-08-23T10:18:54.169Z,32.05
2018-08-23T10:19:54.743Z,32.17
2018-08-23T10:20:55.321Z,32.07
2018-08-23T10:21:55.893Z,32.14
2018-08-23T10:22:56.474Z,31.92
2018-08-23T10:23:57.049Z,32.00
2018-08-23T10:24:57.624Z,32.03
2018-08-23T10:25:58.201Z,32.05
2018-08-23T10:26:58.777Z,32.15
2018-08-23T10:27:59.350Z,32.24
2018-08-23T10:28:59.930Z,32.44
2018-08-23T10:30:00.495Z,32.49
2018-08-23T10:31:01.071Z,32.48
2018-08-23T10:32:01.702Z,32.29
2018-08-23T10:33:02.221Z,32.05
2018-08-23T10:34:02.794Z,32.29
2018-08-23T10:35:03.364Z,32.73
2018-08-23T10:36:03.944Z,32.83
2018-08-23T10:37:04.511Z,32.74
2018-08-23T10:38:05.131Z,32.49
2018-08-23T10:39:05.652Z,32.47
2018-08-23T10:40:06.221Z,32.33
2018-08-23T10:41:06.796Z,32.51
2018-08-23T10:42:07.370Z,32.58
2018-08-23T10:43:07.948Z,32.49
2018-08-23T10:44:08.613Z,32.34
2018-08-23T10:45:09.098Z,32.19
2018-08-23T10:46:09.672Z,32.06
2018-08-23T10:47:10.248Z,32.25
2018-08-23T10:48:10.835Z,32.12
2018-08-23T10:49:11.411Z,32.55
2018-08-23T10:50:11.986Z,32.54
2018-08-23T10:51:12.647Z,32.69
2018-08-23T10:52:13.128Z,32.88
2018-08-23T10:53:13.703Z,33.05
2018-08-23T10:54:14.272Z,32.93
2018-08-23T10:55:14.837Z,32.55
2018-08-23T10:56:15.417Z,32.33
2018-08-23T10:57:15.990Z,32.21
2018-08-23T10:58:16.567Z,32.02
2018-08-23T10:59:17.142Z,32.06
2018-08-23T11:00:17.718Z,32.12
2018-08-23T11:01:18.291Z,32.22
2018-08-23T11:02:18.857Z,32.54
2018-08-23T11:03:19.437Z,32.48
2018-08-23T11:04:20.007Z,32.47
2018-08-23T11:05:20.582Z,32.51
2018-08-23T11:06:21.155Z,32.47
2018-08-23T11:07:21.728Z,32.52
2018-08-23T11:08:22.296Z,32.58
2018-08-23T11:09:22.870Z,32.51
2018-08-23T11:10:23.436Z,32.67
2018-08-23T11:11:24.008Z,32.88
2018-08-23T11:12:24.586Z,32.98
2018-08-23T11:13:25.158Z,33.26
2018-08-23T11:14:25.737Z,33.27
2018-08-23T11:15:26.305Z,32.98
2018-08-23T11:16:26.883Z,32.80
2018-08-23T11:17:27.457Z,32.62
2018-08-23T11:18:28.032Z,32.59
2018-08-23T11:19:28.608Z,32.47
2018-08-23T11:20:29.181Z,32.52
2018-08-23T11:21:29.758Z,32.69
2018-08-23T11:22:30.344Z,32.73
2018-08-23T11:23:30.903Z,32.48
2018-08-23T11:24:31.476Z,32.62
2018-08-23T11:25:32.053Z,32.76
2018-08-23T11:26:32.629Z,32.66
2018-08-23T11:27:33.207Z,32.85
2018-08-23T11:28:33.777Z,32.86
2018-08-23T11:29:34.398Z,33.08
2018-08-23T11:30:34.920Z,33.45
2018-08-23T11:31:35.498Z,33.53
2018-08-23T11:32:36.072Z,33.41
2018-08-23T11:33:36.648Z,33.41
2018-08-23T11:34:37.219Z,33.36
2018-08-23T11:35:37.795Z,33.37
2018-08-23T11:36:38.358Z,33.38
2018-08-23T11:37:38.934Z,33.28
2018-08-23T11:38:39.507Z,33.36
2018-08-23T11:39:40.085Z,33.42
2018-08-23T11:40:40.656Z,33.13
2018-08-23T11:41:41.230Z,33.26
2018-08-23T11:42:41.819Z,33.38
2018-08-23T11:43:42.364Z,33.45
2018-08-23T11:44:42.931Z,33.33
2018-08-23T11:45:43.506Z,33.55
2018-08-23T11:46:44.085Z,33.89
2018-08-23T11:47:44.660Z,33.83
2018-08-23T11:48:45.240Z,33.71
2018-08-23T11:49:45.811Z,33.98
2018-08-23T11:50:46.385Z,33.70
2018-08-23T11:51:46.957Z,33.38
2018-08-23T11:52:47.529Z,33.28
2018-08-23T11:53:48.189Z,33.26
2018-08-23T11:54:48.673Z,33.26
2018-08-23T11:55:49.249Z,33.08
2018-08-23T11:56:49.825Z,33.08
2018-08-23T11:57:50.453Z,33.08
2018-08-23T11:58:51.024Z,32.98
2018-08-23T11:59:51.599Z,33.14
2018-08-23T12:00:52.172Z,32.66
2018-08-23T12:01:52.757Z,32.67
2018-08-23T12:02:53.328Z,32.61
2018-08-23T12:03:53.900Z,33.03
2018-08-23T12:04:54.470Z,33.28
2018-08-23T12:05:55.037Z,32.98
2018-08-23T12:06:55.611Z,32.63
2018-08-23T12:07:56.178Z,32.44
2018-08-23T12:08:56.754Z,32.86
2018-08-23T12:09:57.411Z,33.13
2018-08-23T12:10:57.896Z,32.81
2018-08-23T12:11:58.469Z,32.61
2018-08-23T12:12:59.035Z,32.33
2018-08-23T12:13:59.613Z,32.44
2018-08-23T12:15:00.185Z,32.63
2018-08-23T12:16:00.758Z,32.62
2018-08-23T12:17:01.333Z,32.63
2018-08-23T12:18:01.900Z,32.66
2018-08-23T12:19:02.472Z,32.61
2018-08-23T12:20:03.039Z,32.67
2018-08-23T12:21:03.677Z,32.66
2018-08-23T12:22:04.194Z,32.51
2018-08-23T12:23:04.785Z,32.66
2018-08-23T12:24:05.352Z,32.54
2018-08-23T12:25:05.922Z,32.69
2018-08-23T12:26:06.517Z,32.73
2018-08-23T12:27:07.061Z,32.66
2018-08-23T12:28:07.636Z,32.51
2018-08-23T12:29:08.211Z,32.85
2018-08-23T12:30:08.791Z,33.04
2018-08-23T12:31:09.356Z,33.10
2018-08-23T12:32:09.922Z,33.22
2018-08-23T12:33:10.488Z,33.26
2018-08-23T12:34:11.066Z,33.31
2018-08-23T12:35:11.630Z,33.41
2018-08-23T12:36:12.213Z,33.58
2018-08-23T12:37:12.771Z,33.38
2018-08-23T12:38:13.345Z,33.30
2018-08-23T12:39:13.922Z,33.38
2018-08-23T12:40:14.498Z,33.50
2018-08-23T12:41:15.070Z,33.48
2018-08-23T12:42:15.643Z,33.74
2018-08-23T12:43:16.225Z,33.74
2018-08-23T12:44:16.794Z,33.70
2018-08-23T12:45:17.362Z,33.87
2018-08-23T12:46:17.978Z,33.34
2018-08-23T12:47:18.509Z,33.26
2018-08-23T12:48:19.083Z,32.98
2018-08-23T12:49:19.664Z,33.00
2018-08-23T12:50:20.232Z,33.30
2018-08-23T12:51:20.806Z,33.43
2018-08-23T12:52:21.384Z,33.41
2018-08-23T12:53:22.035Z,33.10
2018-08-23T12:54:22.538Z,33.34
2018-08-23T12:55:23.113Z,33.22
2018-08-23T12:56:23.741Z,33.04
2018-08-23T12:57:24.254Z,32.89
2018-08-23T12:58:24.825Z,33.11
2018-08-23T12:59:25.390Z,33.11
2018-08-23T13:00:25.963Z,33.15